sensor_id;sensor_type;location;lat;lon;timestamp;P1;durP1;ratioP1;P2;durP2;ratioP2
30896;SDS011;64229;52.246;21.054;2022-12-20T00:01:19;53.78;;;20.15;;
30896;SDS011;64229;52.246;21.054;2022-12-20T00:03:47;52.33;;;19.27;;
30896;SDS011;64229;52.246;21.054;2022-12-20T00:06:14;61.70;;;20.80;;
30896;SDS011;64229;52.246;21.054;2022-12-20T00:08:40;59.75;;;20.15;;
30896;SDS011;64229;52.246;21.054;2022-12-20T00:11:05;55.03;;;19.95;;
30896;SDS011;64229;52.246;21.054;2022-12-20T00:13:32;61.63;;;20.83;;
30896;SDS011;64229;52.246;21.054;2022-12-20T00:18:31;55.43;;;20.33;;
30896;SDS011;64229;52.246;21.054;2022-12-20T00:20:57;52.42;;;18.75;;
30896;SDS011;64229;52.246;21.054;2022-12-20T00:23:24;60.42;;;20.83;;
30896;SDS011;64229;52.246;21.054;2022-12-20T00:25:49;62.60;;;19.85;;
30896;SDS011;64229;52.246;21.054;2022-12-20T00:28:15;61.63;;;20.90;;
30896;SDS011;64229;52.246;21.054;2022-12-20T00:30:40;60.03;;;20.77;;
30896;SDS011;64229;52.246;21.054;2022-12-20T00:33:05;58.13;;;19.63;;
30896;SDS011;64229;52.246;21.054;2022-12-20T00:35:31;49.95;;;17.63;;
30896;SDS011;64229;52.246;21.054;2022-12-20T00:37:56;53.20;;;19.88;;
30896;SDS011;64229;52.246;21.054;2022-12-20T00:40:21;55.65;;;19.98;;
30896;SDS011;64229;52.246;21.054;2022-12-20T00:42:46;61.97;;;21.30;;
30896;SDS011;64229;52.246;21.054;2022-12-20T00:45:12;56.30;;;20.48;;
30896;SDS011;64229;52.246;21.054;2022-12-20T00:47:38;58.13;;;20.38;;
30896;SDS011;64229;52.246;21.054;2022-12-20T00:50:03;59.10;;;20.70;;
30896;SDS011;64229;52.246;21.054;2022-12-20T00:52:29;61.10;;;22.20;;
30896;SDS011;64229;52.246;21.054;2022-12-20T00:54:54;63.85;;;20.08;;
30896;SDS011;64229;52.246;21.054;2022-12-20T00:57:20;59.50;;;19.83;;
30896;SDS011;64229;52.246;21.054;2022-12-20T00:59:45;59.78;;;20.00;;
30896;SDS011;64229;52.246;21.054;2022-12-20T01:02:10;61.33;;;20.13;;
30896;SDS011;64229;52.246;21.054;2022-12-20T01:04:36;61.08;;;20.38;;
30896;SDS011;64229;52.246;21.054;2022-12-20T01:07:01;59.17;;;21.60;;
30896;SDS011;64229;52.246;21.054;2022-12-20T01:09:27;56.75;;;21.27;;
30896;SDS011;64229;52.246;21.054;2022-12-20T01:11:52;60.03;;;19.90;;
30896;SDS011;64229;52.246;21.054;2022-12-20T01:14:17;61.55;;;21.10;;
30896;SDS011;64229;52.246;21.054;2022-12-20T01:16:43;54.20;;;19.95;;
30896;SDS011;64229;52.246;21.054;2022-12-20T01:19:11;49.85;;;21.42;;
30896;SDS011;64229;52.246;21.054;2022-12-20T01:21:37;49.50;;;19.67;;
30896;SDS011;64229;52.246;21.054;2022-12-20T01:24:08;54.65;;;20.30;;
30896;SDS011;64229;52.246;21.054;2022-12-20T01:26:34;55.97;;;20.30;;
30896;SDS011;64229;52.246;21.054;2022-12-20T01:28:59;64.30;;;21.20;;
30896;SDS011;64229;52.246;21.054;2022-12-20T01:31:25;58.80;;;21.05;;
30896;SDS011;64229;52.246;21.054;2022-12-20T01:33:52;58.85;;;20.42;;
30896;SDS011;64229;52.246;21.054;2022-12-20T01:36:21;52.13;;;20.33;;
30896;SDS011;64229;52.246;21.054;2022-12-20T01:38:49;56.42;;;20.40;;
30896;SDS011;64229;52.246;21.054;2022-12-20T01:41:18;54.00;;;19.20;;
30896;SDS011;64229;52.246;21.054;2022-12-20T01:43:52;55.65;;;20.25;;
30896;SDS011;64229;52.246;21.054;2022-12-20T01:46:23;52.47;;;18.27;;
30896;SDS011;64229;52.246;21.054;2022-12-20T01:49:12;58.38;;;20.17;;
30896;SDS011;64229;52.246;21.054;2022-12-20T01:51:42;55.92;;;20.65;;
30896;SDS011;64229;52.246;21.054;2022-12-20T01:54:30;54.30;;;21.75;;
30896;SDS011;64229;52.246;21.054;2022-12-20T01:57:03;56.25;;;19.73;;
30896;SDS011;64229;52.246;21.054;2022-12-20T01:59:33;53.80;;;18.98;;
30896;SDS011;64229;52.246;21.054;2022-12-20T02:02:02;62.30;;;20.58;;
30896;SDS011;64229;52.246;21.054;2022-12-20T02:04:31;53.28;;;19.67;;
30896;SDS011;64229;52.246;21.054;2022-12-20T02:06:56;53.50;;;19.75;;
30896;SDS011;64229;52.246;21.054;2022-12-20T02:09:23;49.28;;;18.33;;
30896;SDS011;64229;52.246;21.054;2022-12-20T02:34:40;50.53;;;19.05;;
30896;SDS011;64229;52.246;21.054;2022-12-20T02:37:06;50.88;;;19.10;;
30896;SDS011;64229;52.246;21.054;2022-12-20T02:39:32;47.17;;;18.85;;
30896;SDS011;64229;52.246;21.054;2022-12-20T02:42:03;47.05;;;18.27;;
30896;SDS011;64229;52.246;21.054;2022-12-20T02:44:32;49.80;;;19.00;;
30896;SDS011;64229;52.246;21.054;2022-12-20T02:47:23;48.05;;;18.92;;
30896;SDS011;64229;52.246;21.054;2022-12-20T02:49:53;50.75;;;18.52;;
30896;SDS011;64229;52.246;21.054;2022-12-20T02:52:20;52.05;;;18.90;;
30896;SDS011;64229;52.246;21.054;2022-12-20T02:54:50;51.67;;;17.83;;
30896;SDS011;64229;52.246;21.054;2022-12-20T02:57:17;49.78;;;17.83;;
30896;SDS011;64229;52.246;21.054;2022-12-20T03:00:01;46.33;;;18.08;;
30896;SDS011;64229;52.246;21.054;2022-12-20T03:02:30;43.53;;;17.65;;
30896;SDS011;64229;52.246;21.054;2022-12-20T03:05:17;48.35;;;17.67;;
30896;SDS011;64229;52.246;21.054;2022-12-20T03:07:45;43.50;;;16.95;;
30896;SDS011;64229;52.246;21.054;2022-12-20T03:10:11;49.80;;;17.85;;
30896;SDS011;64229;52.246;21.054;2022-12-20T03:12:36;47.45;;;18.70;;
30896;SDS011;64229;52.246;21.054;2022-12-20T03:15:02;44.88;;;17.80;;
30896;SDS011;64229;52.246;21.054;2022-12-20T03:17:27;47.58;;;17.15;;
30896;SDS011;64229;52.246;21.054;2022-12-20T03:19:53;49.70;;;16.48;;
30896;SDS011;64229;52.246;21.054;2022-12-20T03:22:18;43.90;;;16.75;;
30896;SDS011;64229;52.246;21.054;2022-12-20T03:24:44;45.15;;;16.52;;
30896;SDS011;64229;52.246;21.054;2022-12-20T03:27:09;43.28;;;17.27;;
30896;SDS011;64229;52.246;21.054;2022-12-20T03:29:35;42.30;;;16.35;;
30896;SDS011;64229;52.246;21.054;2022-12-20T03:32:00;39.67;;;15.35;;
30896;SDS011;64229;52.246;21.054;2022-12-20T03:34:25;43.10;;;15.32;;
30896;SDS011;64229;52.246;21.054;2022-12-20T03:36:51;38.08;;;16.20;;
30896;SDS011;64229;52.246;21.054;2022-12-20T03:39:16;41.92;;;16.05;;
30896;SDS011;64229;52.246;21.054;2022-12-20T03:41:42;45.30;;;16.30;;
30896;SDS011;64229;52.246;21.054;2022-12-20T03:44:07;36.75;;;15.43;;
30896;SDS011;64229;52.246;21.054;2022-12-20T03:46:33;40.75;;;16.05;;
30896;SDS011;64229;52.246;21.054;2022-12-20T03:48:58;42.80;;;16.58;;
30896;SDS011;64229;52.246;21.054;2022-12-20T03:51:23;39.85;;;15.07;;
30896;SDS011;64229;52.246;21.054;2022-12-20T03:53:49;42.22;;;16.27;;
30896;SDS011;64229;52.246;21.054;2022-12-20T03:56:14;38.67;;;16.77;;
30896;SDS011;64229;52.246;21.054;2022-12-20T03:58:40;39.67;;;15.98;;
30896;SDS011;64229;52.246;21.054;2022-12-20T04:01:16;43.28;;;15.75;;
30896;SDS011;64229;52.246;21.054;2022-12-20T04:03:45;37.65;;;15.15;;
30896;SDS011;64229;52.246;21.054;2022-12-20T04:06:11;41.47;;;16.02;;
30896;SDS011;64229;52.246;21.054;2022-12-20T04:08:36;38.72;;;15.43;;
30896;SDS011;64229;52.246;21.054;2022-12-20T04:11:02;43.55;;;15.85;;
30896;SDS011;64229;52.246;21.054;2022-12-20T04:13:44;42.17;;;14.98;;
30896;SDS011;64229;52.246;21.054;2022-12-20T04:16:14;42.63;;;15.68;;
30896;SDS011;64229;52.246;21.054;2022-12-20T04:18:41;39.70;;;15.38;;
30896;SDS011;64229;52.246;21.054;2022-12-20T04:21:07;37.72;;;14.48;;
30896;SDS011;64229;52.246;21.054;2022-12-20T04:23:34;42.60;;;15.02;;
30896;SDS011;64229;52.246;21.054;2022-12-20T04:26:01;35.90;;;15.05;;
30896;SDS011;64229;52.246;21.054;2022-12-20T04:28:27;34.92;;;14.43;;
30896;SDS011;64229;52.246;21.054;2022-12-20T04:30:53;38.47;;;15.18;;
30896;SDS011;64229;52.246;21.054;2022-12-20T04:33:18;39.85;;;16.33;;
30896;SDS011;64229;52.246;21.054;2022-12-20T04:35:43;38.75;;;14.50;;
30896;SDS011;64229;52.246;21.054;2022-12-20T04:38:09;40.42;;;15.63;;
30896;SDS011;64229;52.246;21.054;2022-12-20T04:40:34;41.25;;;15.35;;
30896;SDS011;64229;52.246;21.054;2022-12-20T04:42:59;40.22;;;15.20;;
30896;SDS011;64229;52.246;21.054;2022-12-20T04:45:25;42.88;;;15.90;;
30896;SDS011;64229;52.246;21.054;2022-12-20T04:47:50;42.47;;;14.77;;
30896;SDS011;64229;52.246;21.054;2022-12-20T04:50:15;37.80;;;14.95;;
30896;SDS011;64229;52.246;21.054;2022-12-20T04:52:42;41.55;;;14.98;;
30896;SDS011;64229;52.246;21.054;2022-12-20T04:55:26;38.15;;;14.55;;
30896;SDS011;64229;52.246;21.054;2022-12-20T04:57:51;39.83;;;15.25;;
30896;SDS011;64229;52.246;21.054;2022-12-20T05:00:17;37.42;;;14.27;;
30896;SDS011;64229;52.246;21.054;2022-12-20T05:02:42;36.65;;;15.02;;
30896;SDS011;64229;52.246;21.054;2022-12-20T05:05:08;37.72;;;14.90;;
30896;SDS011;64229;52.246;21.054;2022-12-20T05:07:33;36.15;;;15.80;;
30896;SDS011;64229;52.246;21.054;2022-12-20T05:09:59;39.20;;;16.02;;
30896;SDS011;64229;52.246;21.054;2022-12-20T05:12:24;37.17;;;14.60;;
30896;SDS011;64229;52.246;21.054;2022-12-20T05:14:49;34.72;;;13.52;;
30896;SDS011;64229;52.246;21.054;2022-12-20T05:17:15;33.70;;;13.90;;
30896;SDS011;64229;52.246;21.054;2022-12-20T05:19:40;36.42;;;15.20;;
30896;SDS011;64229;52.246;21.054;2022-12-20T05:22:05;38.03;;;14.32;;
30896;SDS011;64229;52.246;21.054;2022-12-20T05:24:49;36.90;;;13.97;;
30896;SDS011;64229;52.246;21.054;2022-12-20T05:27:33;35.58;;;14.38;;
30896;SDS011;64229;52.246;21.054;2022-12-20T05:29:58;37.35;;;15.00;;
30896;SDS011;64229;52.246;21.054;2022-12-20T05:32:24;42.88;;;14.80;;
30896;SDS011;64229;52.246;21.054;2022-12-20T05:34:49;36.97;;;14.48;;
30896;SDS011;64229;52.246;21.054;2022-12-20T05:37:14;41.25;;;15.25;;
30896;SDS011;64229;52.246;21.054;2022-12-20T05:39:40;38.17;;;14.25;;
30896;SDS011;64229;52.246;21.054;2022-12-20T05:42:05;39.40;;;14.52;;
30896;SDS011;64229;52.246;21.054;2022-12-20T05:44:30;35.10;;;13.77;;
30896;SDS011;64229;52.246;21.054;2022-12-20T05:46:56;40.55;;;14.43;;
30896;SDS011;64229;52.246;21.054;2022-12-20T05:49:21;38.03;;;14.32;;
30896;SDS011;64229;52.246;21.054;2022-12-20T05:51:46;36.45;;;14.35;;
30896;SDS011;64229;52.246;21.054;2022-12-20T05:54:12;36.50;;;13.80;;
30896;SDS011;64229;52.246;21.054;2022-12-20T05:56:37;37.70;;;14.18;;
30896;SDS011;64229;52.246;21.054;2022-12-20T05:59:02;34.17;;;13.85;;
30896;SDS011;64229;52.246;21.054;2022-12-20T06:01:28;37.72;;;14.27;;
30896;SDS011;64229;52.246;21.054;2022-12-20T06:03:53;36.63;;;14.52;;
30896;SDS011;64229;52.246;21.054;2022-12-20T06:06:18;43.58;;;15.68;;
30896;SDS011;64229;52.246;21.054;2022-12-20T06:08:44;32.25;;;13.63;;
30896;SDS011;64229;52.246;21.054;2022-12-20T06:11:09;32.58;;;12.80;;
30896;SDS011;64229;52.246;21.054;2022-12-20T06:13:34;35.05;;;13.40;;
30896;SDS011;64229;52.246;21.054;2022-12-20T06:16:00;36.95;;;13.63;;
30896;SDS011;64229;52.246;21.054;2022-12-20T06:18:25;35.63;;;13.30;;
30896;SDS011;64229;52.246;21.054;2022-12-20T06:20:51;32.80;;;12.95;;
30896;SDS011;64229;52.246;21.054;2022-12-20T06:23:17;35.97;;;13.23;;
30896;SDS011;64229;52.246;21.054;2022-12-20T06:25:44;37.33;;;14.50;;
30896;SDS011;64229;52.246;21.054;2022-12-20T06:28:10;32.75;;;13.07;;
30896;SDS011;64229;52.246;21.054;2022-12-20T06:30:35;36.05;;;13.68;;
30896;SDS011;64229;52.246;21.054;2022-12-20T06:33:01;30.75;;;13.23;;
30896;SDS011;64229;52.246;21.054;2022-12-20T06:35:27;30.83;;;12.50;;
30896;SDS011;64229;52.246;21.054;2022-12-20T06:37:53;33.85;;;13.13;;
30896;SDS011;64229;52.246;21.054;2022-12-20T06:40:18;31.60;;;12.57;;
30896;SDS011;64229;52.246;21.054;2022-12-20T06:42:44;33.75;;;12.52;;
30896;SDS011;64229;52.246;21.054;2022-12-20T06:45:09;33.58;;;13.13;;
30896;SDS011;64229;52.246;21.054;2022-12-20T06:47:35;32.22;;;12.77;;
30896;SDS011;64229;52.246;21.054;2022-12-20T06:50:01;31.98;;;12.00;;
30896;SDS011;64229;52.246;21.054;2022-12-20T06:52:26;34.92;;;13.40;;
30896;SDS011;64229;52.246;21.054;2022-12-20T06:54:52;37.55;;;12.52;;
30896;SDS011;64229;52.246;21.054;2022-12-20T06:57:17;33.22;;;12.90;;
30896;SDS011;64229;52.246;21.054;2022-12-20T06:59:43;35.17;;;13.93;;
30896;SDS011;64229;52.246;21.054;2022-12-20T07:02:11;33.05;;;13.23;;
30896;SDS011;64229;52.246;21.054;2022-12-20T07:04:36;32.35;;;12.93;;
30896;SDS011;64229;52.246;21.054;2022-12-20T07:07:02;31.75;;;12.93;;
30896;SDS011;64229;52.246;21.054;2022-12-20T07:09:28;33.13;;;12.23;;
30896;SDS011;64229;52.246;21.054;2022-12-20T07:11:54;32.35;;;12.40;;
30896;SDS011;64229;52.246;21.054;2022-12-20T07:14:19;32.58;;;12.60;;
30896;SDS011;64229;52.246;21.054;2022-12-20T07:16:45;35.03;;;13.20;;
30896;SDS011;64229;52.246;21.054;2022-12-20T07:19:11;32.15;;;13.27;;
30896;SDS011;64229;52.246;21.054;2022-12-20T07:21:38;30.52;;;12.73;;
30896;SDS011;64229;52.246;21.054;2022-12-20T07:24:03;28.88;;;12.27;;
30896;SDS011;64229;52.246;21.054;2022-12-20T07:26:29;23.98;;;10.57;;
30896;SDS011;64229;52.246;21.054;2022-12-20T07:28:55;33.20;;;12.85;;
30896;SDS011;64229;52.246;21.054;2022-12-20T07:31:20;35.25;;;13.07;;
30896;SDS011;64229;52.246;21.054;2022-12-20T07:33:46;33.17;;;11.70;;
30896;SDS011;64229;52.246;21.054;2022-12-20T07:36:12;29.02;;;11.52;;
30896;SDS011;64229;52.246;21.054;2022-12-20T07:38:38;32.63;;;13.60;;
30896;SDS011;64229;52.246;21.054;2022-12-20T07:41:10;32.47;;;12.90;;
30896;SDS011;64229;52.246;21.054;2022-12-20T07:43:38;34.75;;;12.75;;
30896;SDS011;64229;52.246;21.054;2022-12-20T07:46:04;32.30;;;12.95;;
30896;SDS011;64229;52.246;21.054;2022-12-20T07:48:31;36.42;;;13.10;;
30896;SDS011;64229;52.246;21.054;2022-12-20T07:51:01;33.20;;;13.00;;
30896;SDS011;64229;52.246;21.054;2022-12-20T07:53:30;40.27;;;13.40;;
30896;SDS011;64229;52.246;21.054;2022-12-20T07:55:59;31.02;;;13.85;;
30896;SDS011;64229;52.246;21.054;2022-12-20T07:58:26;32.92;;;12.85;;
30896;SDS011;64229;52.246;21.054;2022-12-20T08:00:53;36.72;;;14.13;;
30896;SDS011;64229;52.246;21.054;2022-12-20T08:03:20;33.45;;;13.82;;
30896;SDS011;64229;52.246;21.054;2022-12-20T08:05:52;33.38;;;13.70;;
30896;SDS011;64229;52.246;21.054;2022-12-20T08:08:21;32.95;;;13.45;;
30896;SDS011;64229;52.246;21.054;2022-12-20T08:10:47;33.83;;;13.38;;
30896;SDS011;64229;52.246;21.054;2022-12-20T08:13:14;35.88;;;13.73;;
30896;SDS011;64229;52.246;21.054;2022-12-20T08:15:40;30.70;;;13.68;;
30896;SDS011;64229;52.246;21.054;2022-12-20T08:18:05;34.92;;;12.45;;
30896;SDS011;64229;52.246;21.054;2022-12-20T08:20:31;33.35;;;13.70;;
30896;SDS011;64229;52.246;21.054;2022-12-20T08:22:56;36.65;;;13.00;;
30896;SDS011;64229;52.246;21.054;2022-12-20T08:25:22;34.13;;;14.57;;
30896;SDS011;64229;52.246;21.054;2022-12-20T08:27:48;36.42;;;13.55;;
30896;SDS011;64229;52.246;21.054;2022-12-20T08:30:13;35.20;;;13.07;;
30896;SDS011;64229;52.246;21.054;2022-12-20T08:32:39;30.85;;;13.65;;
30896;SDS011;64229;52.246;21.054;2022-12-20T08:35:05;34.97;;;13.57;;
30896;SDS011;64229;52.246;21.054;2022-12-20T08:37:31;29.55;;;12.63;;
30896;SDS011;64229;52.246;21.054;2022-12-20T08:39:56;31.55;;;13.02;;
30896;SDS011;64229;52.246;21.054;2022-12-20T08:42:22;30.85;;;11.90;;
30896;SDS011;64229;52.246;21.054;2022-12-20T08:44:47;33.42;;;14.15;;
30896;SDS011;64229;52.246;21.054;2022-12-20T08:47:12;30.30;;;11.43;;
30896;SDS011;64229;52.246;21.054;2022-12-20T08:49:38;37.92;;;14.60;;
30896;SDS011;64229;52.246;21.054;2022-12-20T08:52:03;39.08;;;13.45;;
30896;SDS011;64229;52.246;21.054;2022-12-20T08:54:28;32.40;;;13.68;;
30896;SDS011;64229;52.246;21.054;2022-12-20T08:56:54;35.25;;;13.32;;
30896;SDS011;64229;52.246;21.054;2022-12-20T08:59:19;32.80;;;13.88;;
30896;SDS011;64229;52.246;21.054;2022-12-20T09:01:44;34.60;;;13.25;;
30896;SDS011;64229;52.246;21.054;2022-12-20T09:04:10;33.15;;;13.57;;
30896;SDS011;64229;52.246;21.054;2022-12-20T09:06:36;33.15;;;13.43;;
30896;SDS011;64229;52.246;21.054;2022-12-20T09:09:02;33.70;;;13.63;;
30896;SDS011;64229;52.246;21.054;2022-12-20T09:11:28;33.45;;;13.75;;
30896;SDS011;64229;52.246;21.054;2022-12-20T09:13:55;35.97;;;14.55;;
30896;SDS011;64229;52.246;21.054;2022-12-20T09:16:22;34.70;;;12.73;;
30896;SDS011;64229;52.246;21.054;2022-12-20T09:18:50;29.52;;;13.57;;
30896;SDS011;64229;52.246;21.054;2022-12-20T09:21:17;31.80;;;13.73;;
30896;SDS011;64229;52.246;21.054;2022-12-20T09:23:43;33.20;;;13.52;;
30896;SDS011;64229;52.246;21.054;2022-12-20T09:26:13;31.20;;;12.75;;
30896;SDS011;64229;52.246;21.054;2022-12-20T09:28:39;32.10;;;12.65;;
30896;SDS011;64229;52.246;21.054;2022-12-20T09:31:06;31.33;;;13.27;;
30896;SDS011;64229;52.246;21.054;2022-12-20T09:33:33;44.17;;;14.73;;
30896;SDS011;64229;52.246;21.054;2022-12-20T09:36:00;35.20;;;13.20;;
30896;SDS011;64229;52.246;21.054;2022-12-20T09:38:26;33.47;;;13.65;;
30896;SDS011;64229;52.246;21.054;2022-12-20T09:40:53;37.38;;;13.95;;
30896;SDS011;64229;52.246;21.054;2022-12-20T09:43:22;35.75;;;15.02;;
30896;SDS011;64229;52.246;21.054;2022-12-20T09:45:50;36.67;;;13.80;;
30896;SDS011;64229;52.246;21.054;2022-12-20T09:48:19;35.65;;;14.23;;
30896;SDS011;64229;52.246;21.054;2022-12-20T09:53:41;31.50;;;14.75;;
30896;SDS011;64229;52.246;21.054;2022-12-20T09:56:27;32.80;;;14.35;;
30896;SDS011;64229;52.246;21.054;2022-12-20T09:58:57;34.17;;;13.18;;
30896;SDS011;64229;52.246;21.054;2022-12-20T10:01:26;40.45;;;15.30;;
30896;SDS011;64229;52.246;21.054;2022-12-20T10:03:53;34.63;;;14.30;;
30896;SDS011;64229;52.246;21.054;2022-12-20T10:08:59;35.42;;;14.73;;
30896;SDS011;64229;52.246;21.054;2022-12-20T10:14:46;37.83;;;15.10;;
30896;SDS011;64229;52.246;21.054;2022-12-20T10:17:21;35.33;;;14.05;;
30896;SDS011;64229;52.246;21.054;2022-12-20T10:22:29;39.00;;;15.82;;
30896;SDS011;64229;52.246;21.054;2022-12-20T10:27:45;40.47;;;15.73;;
30896;SDS011;64229;52.246;21.054;2022-12-20T10:30:16;35.50;;;14.90;;
30896;SDS011;64229;52.246;21.054;2022-12-20T10:32:46;40.08;;;15.85;;
30896;SDS011;64229;52.246;21.054;2022-12-20T10:37:38;38.92;;;15.98;;
30896;SDS011;64229;52.246;21.054;2022-12-20T10:40:25;40.75;;;16.33;;
30896;SDS011;64229;52.246;21.054;2022-12-20T10:42:53;38.72;;;15.18;;
30896;SDS011;64229;52.246;21.054;2022-12-20T10:47:47;45.60;;;16.48;;
30896;SDS011;64229;52.246;21.054;2022-12-20T10:50:19;42.35;;;16.75;;
30896;SDS011;64229;52.246;21.054;2022-12-20T10:55:46;36.72;;;14.68;;
30896;SDS011;64229;52.246;21.054;2022-12-20T10:58:14;43.28;;;16.13;;
30896;SDS011;64229;52.246;21.054;2022-12-20T11:00:41;37.83;;;16.02;;
30896;SDS011;64229;52.246;21.054;2022-12-20T11:03:13;42.47;;;16.02;;
30896;SDS011;64229;52.246;21.054;2022-12-20T11:05:56;44.40;;;16.65;;
30896;SDS011;64229;52.246;21.054;2022-12-20T11:08:23;42.75;;;16.63;;
30896;SDS011;64229;52.246;21.054;2022-12-20T11:11:00;35.88;;;14.95;;
30896;SDS011;64229;52.246;21.054;2022-12-20T11:13:37;38.70;;;15.15;;
30896;SDS011;64229;52.246;21.054;2022-12-20T11:16:03;42.40;;;16.45;;
30896;SDS011;64229;52.246;21.054;2022-12-20T11:18:33;41.38;;;16.30;;
30896;SDS011;64229;52.246;21.054;2022-12-20T11:23:38;53.83;;;18.25;;
30896;SDS011;64229;52.246;21.054;2022-12-20T11:31:39;42.58;;;16.95;;
30896;SDS011;64229;52.246;21.054;2022-12-20T11:37:20;39.70;;;17.60;;
30896;SDS011;64229;52.246;21.054;2022-12-20T11:42:28;43.92;;;17.00;;
30896;SDS011;64229;52.246;21.054;2022-12-20T11:45:02;39.38;;;16.20;;
30896;SDS011;64229;52.246;21.054;2022-12-20T11:53:08;37.67;;;15.82;;
30896;SDS011;64229;52.246;21.054;2022-12-20T11:55:40;40.15;;;16.85;;
30896;SDS011;64229;52.246;21.054;2022-12-20T11:58:13;42.35;;;16.02;;
30896;SDS011;64229;52.246;21.054;2022-12-20T12:01:03;38.25;;;16.30;;
30896;SDS011;64229;52.246;21.054;2022-12-20T12:03:35;39.40;;;16.95;;
30896;SDS011;64229;52.246;21.054;2022-12-20T12:06:06;50.80;;;18.63;;
30896;SDS011;64229;52.246;21.054;2022-12-20T12:08:42;40.30;;;17.67;;
30896;SDS011;64229;52.246;21.054;2022-12-20T12:11:21;38.15;;;16.02;;
30896;SDS011;64229;52.246;21.054;2022-12-20T12:13:51;39.25;;;16.60;;
30896;SDS011;64229;52.246;21.054;2022-12-20T12:16:28;40.97;;;17.08;;
30896;SDS011;64229;52.246;21.054;2022-12-20T12:19:04;42.13;;;16.45;;
30896;SDS011;64229;52.246;21.054;2022-12-20T12:21:39;43.58;;;17.08;;
30896;SDS011;64229;52.246;21.054;2022-12-20T12:24:37;40.85;;;17.15;;
30896;SDS011;64229;52.246;21.054;2022-12-20T12:27:21;48.13;;;17.85;;
30896;SDS011;64229;52.246;21.054;2022-12-20T12:29:54;38.25;;;16.33;;
30896;SDS011;64229;52.246;21.054;2022-12-20T12:32:56;41.95;;;17.25;;
30896;SDS011;64229;52.246;21.054;2022-12-20T12:38:14;44.58;;;16.95;;
30896;SDS011;64229;52.246;21.054;2022-12-20T12:43:54;43.10;;;17.35;;
30896;SDS011;64229;52.246;21.054;2022-12-20T12:46:28;37.67;;;16.80;;
30896;SDS011;64229;52.246;21.054;2022-12-20T12:51:30;41.67;;;16.15;;
30896;SDS011;64229;52.246;21.054;2022-12-20T12:54:13;39.58;;;17.75;;
30896;SDS011;64229;52.246;21.054;2022-12-20T12:56:49;41.97;;;16.97;;
30896;SDS011;64229;52.246;21.054;2022-12-20T13:02:23;46.08;;;16.95;;
30896;SDS011;64229;52.246;21.054;2022-12-20T13:12:52;45.05;;;17.73;;
30896;SDS011;64229;52.246;21.054;2022-12-20T13:17:47;40.25;;;16.75;;
30896;SDS011;64229;52.246;21.054;2022-12-20T13:20:23;43.30;;;18.08;;
30896;SDS011;64229;52.246;21.054;2022-12-20T13:25:39;39.22;;;17.67;;
30896;SDS011;64229;52.246;21.054;2022-12-20T13:30:46;41.35;;;16.77;;
30896;SDS011;64229;52.246;21.054;2022-12-20T13:36:01;43.83;;;17.17;;
30896;SDS011;64229;52.246;21.054;2022-12-20T13:38:49;49.00;;;18.00;;
30896;SDS011;64229;52.246;21.054;2022-12-20T13:41:24;41.92;;;17.38;;
30896;SDS011;64229;52.246;21.054;2022-12-20T13:44:42;44.22;;;17.42;;
30896;SDS011;64229;52.246;21.054;2022-12-20T13:47:00;41.38;;;16.92;;
30896;SDS011;64229;52.246;21.054;2022-12-20T13:49:39;39.75;;;17.05;;
30896;SDS011;64229;52.246;21.054;2022-12-20T13:54:58;43.50;;;17.40;;
30896;SDS011;64229;52.246;21.054;2022-12-20T13:57:32;43.10;;;16.42;;
30896;SDS011;64229;52.246;21.054;2022-12-20T14:00:11;39.15;;;16.63;;
30896;SDS011;64229;52.246;21.054;2022-12-20T14:02:41;43.10;;;17.60;;
30896;SDS011;64229;52.246;21.054;2022-12-20T14:05:15;44.10;;;17.50;;
30896;SDS011;64229;52.246;21.054;2022-12-20T14:07:45;46.42;;;17.90;;
30896;SDS011;64229;52.246;21.054;2022-12-20T14:10:23;46.53;;;18.23;;
30896;SDS011;64229;52.246;21.054;2022-12-20T14:12:51;44.78;;;17.90;;
30896;SDS011;64229;52.246;21.054;2022-12-20T14:15:28;42.33;;;18.15;;
30896;SDS011;64229;52.246;21.054;2022-12-20T14:18:19;41.95;;;17.20;;
30896;SDS011;64229;52.246;21.054;2022-12-20T14:20:54;40.25;;;16.67;;
30896;SDS011;64229;52.246;21.054;2022-12-20T14:23:42;44.80;;;17.95;;
30896;SDS011;64229;52.246;21.054;2022-12-20T14:26:12;41.90;;;17.02;;
30896;SDS011;64229;52.246;21.054;2022-12-20T14:28:41;44.72;;;18.30;;
30896;SDS011;64229;52.246;21.054;2022-12-20T14:31:23;46.05;;;19.17;;
30896;SDS011;64229;52.246;21.054;2022-12-20T14:34:15;47.47;;;17.80;;
30896;SDS011;64229;52.246;21.054;2022-12-20T14:39:58;44.60;;;17.10;;
30896;SDS011;64229;52.246;21.054;2022-12-20T14:42:39;43.85;;;16.90;;
30896;SDS011;64229;52.246;21.054;2022-12-20T14:47:33;44.63;;;17.95;;
30896;SDS011;64229;52.246;21.054;2022-12-20T14:50:00;45.33;;;17.95;;
30896;SDS011;64229;52.246;21.054;2022-12-20T14:52:33;46.80;;;18.27;;
30896;SDS011;64229;52.246;21.054;2022-12-20T14:55:08;45.00;;;18.48;;
30896;SDS011;64229;52.246;21.054;2022-12-20T14:57:48;44.45;;;17.80;;
30896;SDS011;64229;52.246;21.054;2022-12-20T15:00:23;50.45;;;17.73;;
30896;SDS011;64229;52.246;21.054;2022-12-20T15:02:51;46.75;;;18.90;;
30896;SDS011;64229;52.246;21.054;2022-12-20T15:13:41;44.40;;;17.50;;
30896;SDS011;64229;52.246;21.054;2022-12-20T15:16:22;43.00;;;17.48;;
30896;SDS011;64229;52.246;21.054;2022-12-20T15:18:55;49.78;;;20.80;;
30896;SDS011;64229;52.246;21.054;2022-12-20T15:21:32;45.42;;;17.77;;
30896;SDS011;64229;52.246;21.054;2022-12-20T15:24:02;48.92;;;18.58;;
30896;SDS011;64229;52.246;21.054;2022-12-20T15:26:32;44.38;;;19.05;;
30896;SDS011;64229;52.246;21.054;2022-12-20T15:28:57;43.53;;;17.65;;
30896;SDS011;64229;52.246;21.054;2022-12-20T15:31:23;50.45;;;19.30;;
30896;SDS011;64229;52.246;21.054;2022-12-20T15:33:50;47.95;;;18.80;;
30896;SDS011;64229;52.246;21.054;2022-12-20T15:36:22;45.70;;;18.27;;
30896;SDS011;64229;52.246;21.054;2022-12-20T15:38:53;46.23;;;18.33;;
30896;SDS011;64229;52.246;21.054;2022-12-20T15:43:53;45.97;;;17.92;;
30896;SDS011;64229;52.246;21.054;2022-12-20T15:46:29;45.13;;;18.85;;
30896;SDS011;64229;52.246;21.054;2022-12-20T15:48:55;46.70;;;19.08;;
30896;SDS011;64229;52.246;21.054;2022-12-20T15:53:52;43.83;;;18.17;;
30896;SDS011;64229;52.246;21.054;2022-12-20T15:56:19;48.05;;;18.58;;
30896;SDS011;64229;52.246;21.054;2022-12-20T15:58:47;44.60;;;18.15;;
30896;SDS011;64229;52.246;21.054;2022-12-20T16:01:15;44.75;;;19.08;;
30896;SDS011;64229;52.246;21.054;2022-12-20T16:03:43;47.17;;;18.88;;
30896;SDS011;64229;52.246;21.054;2022-12-20T16:06:09;45.63;;;17.95;;
30896;SDS011;64229;52.246;21.054;2022-12-20T16:08:37;39.08;;;17.13;;
30896;SDS011;64229;52.246;21.054;2022-12-20T16:11:03;53.70;;;19.38;;
30896;SDS011;64229;52.246;21.054;2022-12-20T16:13:31;49.33;;;19.00;;
30896;SDS011;64229;52.246;21.054;2022-12-20T16:15:58;52.72;;;19.55;;
30896;SDS011;64229;52.246;21.054;2022-12-20T16:18:24;53.70;;;19.25;;